sensor_id;sensor_type;location;lat;lon;timestamp;P1;durP1;ratioP1;P2;durP2;ratioP2
43248;SDS011;29216;51.248;6.808;2023-02-01T00:02:06;12.50;;;5.65;;
43248;SDS011;29216;51.248;6.808;2023-02-01T00:04:33;16.45;;;5.75;;
43248;SDS011;29216;51.248;6.808;2023-02-01T00:06:59;19.52;;;6.15;;
43248;SDS011;29216;51.248;6.808;2023-02-01T00:09:25;17.52;;;6.18;;
43248;SDS011;29216;51.248;6.808;2023-02-01T00:11:51;19.33;;;5.88;;
43248;SDS011;29216;51.248;6.808;2023-02-01T00:14:17;14.82;;;5.82;;
43248;SDS011;29216;51.248;6.808;2023-02-01T00:16:43;13.45;;;5.90;;
43248;SDS011;29216;51.248;6.808;2023-02-01T00:19:12;17.60;;;8.27;;
43248;SDS011;29216;51.248;6.808;2023-02-01T00:21:39;20.73;;;6.75;;
43248;SDS011;29216;51.248;6.808;2023-02-01T00:24:05;17.95;;;6.78;;
43248;SDS011;29216;51.248;6.808;2023-02-01T00:26:32;18.30;;;7.78;;
43248;SDS011;29216;51.248;6.808;2023-02-01T00:28:58;21.15;;;8.70;;
43248;SDS011;29216;51.248;6.808;2023-02-01T00:31:24;15.93;;;7.95;;
43248;SDS011;29216;51.248;6.808;2023-02-01T00:33:50;20.15;;;8.40;;
43248;SDS011;29216;51.248;6.808;2023-02-01T00:36:16;19.25;;;8.63;;
43248;SDS011;29216;51.248;6.808;2023-02-01T00:38:42;21.20;;;8.88;;
43248;SDS011;29216;51.248;6.808;2023-02-01T00:41:10;18.60;;;8.95;;
43248;SDS011;29216;51.248;6.808;2023-02-01T00:43:40;16.88;;;9.05;;
43248;SDS011;29216;51.248;6.808;2023-02-01T00:46:07;16.55;;;9.43;;
43248;SDS011;29216;51.248;6.808;2023-02-01T00:48:33;27.58;;;9.32;;
43248;SDS011;29216;51.248;6.808;2023-02-01T00:51:06;19.83;;;8.98;;
43248;SDS011;29216;51.248;6.808;2023-02-01T00:53:34;20.95;;;8.88;;
43248;SDS011;29216;51.248;6.808;2023-02-01T00:56:00;19.02;;;8.43;;
43248;SDS011;29216;51.248;6.808;2023-02-01T00:58:26;14.38;;;8.60;;
43248;SDS011;29216;51.248;6.808;2023-02-01T01:03:29;25.20;;;8.60;;
43248;SDS011;29216;51.248;6.808;2023-02-01T01:05:58;19.20;;;8.27;;
43248;SDS011;29216;51.248;6.808;2023-02-01T01:08:25;22.83;;;8.40;;
43248;SDS011;29216;51.248;6.808;2023-02-01T01:10:50;17.20;;;6.78;;
43248;SDS011;29216;51.248;6.808;2023-02-01T01:13:16;19.15;;;6.63;;
43248;SDS011;29216;51.248;6.808;2023-02-01T01:15:42;15.98;;;6.95;;
43248;SDS011;29216;51.248;6.808;2023-02-01T01:18:08;19.83;;;7.20;;
43248;SDS011;29216;51.248;6.808;2023-02-01T01:20:34;17.10;;;6.60;;
43248;SDS011;29216;51.248;6.808;2023-02-01T01:23:01;18.05;;;6.72;;
43248;SDS011;29216;51.248;6.808;2023-02-01T01:25:27;12.55;;;5.65;;
43248;SDS011;29216;51.248;6.808;2023-02-01T01:27:53;17.15;;;5.65;;
43248;SDS011;29216;51.248;6.808;2023-02-01T01:30:18;20.35;;;6.88;;
43248;SDS011;29216;51.248;6.808;2023-02-01T01:32:44;15.77;;;5.22;;
43248;SDS011;29216;51.248;6.808;2023-02-01T01:35:10;12.18;;;5.20;;
43248;SDS011;29216;51.248;6.808;2023-02-01T01:37:36;16.33;;;5.75;;
43248;SDS011;29216;51.248;6.808;2023-02-01T01:40:05;13.27;;;4.32;;
43248;SDS011;29216;51.248;6.808;2023-02-01T01:42:39;19.23;;;5.35;;
43248;SDS011;29216;51.248;6.808;2023-02-01T01:47:44;15.85;;;4.78;;
43248;SDS011;29216;51.248;6.808;2023-02-01T01:53:13;15.25;;;4.13;;
43248;SDS011;29216;51.248;6.808;2023-02-01T01:55:43;15.38;;;4.45;;
43248;SDS011;29216;51.248;6.808;2023-02-01T01:58:13;14.98;;;3.70;;
43248;SDS011;29216;51.248;6.808;2023-02-01T02:00:42;14.13;;;4.88;;
43248;SDS011;29216;51.248;6.808;2023-02-01T02:03:19;11.30;;;4.45;;
43248;SDS011;29216;51.248;6.808;2023-02-01T02:05:55;20.13;;;4.40;;
43248;SDS011;29216;51.248;6.808;2023-02-01T02:08:25;12.50;;;3.97;;
43248;SDS011;29216;51.248;6.808;2023-02-01T02:10:51;11.75;;;4.38;;
43248;SDS011;29216;51.248;6.808;2023-02-01T02:13:31;13.02;;;3.33;;
43248;SDS011;29216;51.248;6.808;2023-02-01T02:19:10;13.77;;;3.60;;
43248;SDS011;29216;51.248;6.808;2023-02-01T02:22:02;15.48;;;4.20;;
43248;SDS011;29216;51.248;6.808;2023-02-01T02:41:17;13.48;;;3.70;;
43248;SDS011;29216;51.248;6.808;2023-02-01T02:47:16;16.70;;;3.95;;
43248;SDS011;29216;51.248;6.808;2023-02-01T02:49:51;18.60;;;4.07;;
43248;SDS011;29216;51.248;6.808;2023-02-01T02:52:42;19.33;;;4.55;;
43248;SDS011;29216;51.248;6.808;2023-02-01T02:55:35;20.10;;;4.72;;
43248;SDS011;29216;51.248;6.808;2023-02-01T02:58:04;13.88;;;3.28;;
43248;SDS011;29216;51.248;6.808;2023-02-01T03:00:50;17.30;;;4.20;;
43248;SDS011;29216;51.248;6.808;2023-02-01T03:03:39;13.63;;;3.40;;
43248;SDS011;29216;51.248;6.808;2023-02-01T03:06:23;14.40;;;4.03;;
43248;SDS011;29216;51.248;6.808;2023-02-01T03:08:50;13.18;;;4.85;;
43248;SDS011;29216;51.248;6.808;2023-02-01T03:11:19;17.20;;;4.50;;
43248;SDS011;29216;51.248;6.808;2023-02-01T03:24:11;12.23;;;3.90;;
43248;SDS011;29216;51.248;6.808;2023-02-01T03:29:24;18.73;;;4.30;;
43248;SDS011;29216;51.248;6.808;2023-02-01T03:31:54;15.98;;;4.32;;
43248;SDS011;29216;51.248;6.808;2023-02-01T03:34:20;21.52;;;4.63;;
43248;SDS011;29216;51.248;6.808;2023-02-01T03:36:51;18.00;;;3.63;;
43248;SDS011;29216;51.248;6.808;2023-02-01T03:39:30;17.73;;;4.45;;
43248;SDS011;29216;51.248;6.808;2023-02-01T03:42:01;13.05;;;3.67;;
43248;SDS011;29216;51.248;6.808;2023-02-01T03:44:47;19.35;;;4.18;;
43248;SDS011;29216;51.248;6.808;2023-02-01T03:47:22;16.77;;;4.07;;
43248;SDS011;29216;51.248;6.808;2023-02-01T03:49:55;18.17;;;5.13;;
43248;SDS011;29216;51.248;6.808;2023-02-01T03:52:37;18.95;;;4.43;;
43248;SDS011;29216;51.248;6.808;2023-02-01T03:55:06;15.30;;;3.55;;
43248;SDS011;29216;51.248;6.808;2023-02-01T03:57:34;18.58;;;4.18;;
43248;SDS011;29216;51.248;6.808;2023-02-01T04:00:07;18.35;;;3.92;;
43248;SDS011;29216;51.248;6.808;2023-02-01T04:02:35;15.80;;;4.15;;
43248;SDS011;29216;51.248;6.808;2023-02-01T04:05:00;22.30;;;4.47;;
43248;SDS011;29216;51.248;6.808;2023-02-01T04:07:26;14.02;;;3.45;;
43248;SDS011;29216;51.248;6.808;2023-02-01T04:09:51;13.88;;;3.53;;
43248;SDS011;29216;51.248;6.808;2023-02-01T04:12:17;21.63;;;4.07;;
43248;SDS011;29216;51.248;6.808;2023-02-01T04:14:43;15.05;;;4.03;;
43248;SDS011;29216;51.248;6.808;2023-02-01T04:17:08;13.35;;;3.55;;
43248;SDS011;29216;51.248;6.808;2023-02-01T04:19:34;19.50;;;3.65;;
43248;SDS011;29216;51.248;6.808;2023-02-01T04:21:59;18.42;;;4.15;;
43248;SDS011;29216;51.248;6.808;2023-02-01T04:24:25;14.48;;;3.72;;
43248;SDS011;29216;51.248;6.808;2023-02-01T04:26:50;14.57;;;4.03;;
43248;SDS011;29216;51.248;6.808;2023-02-01T04:29:16;18.25;;;4.07;;
43248;SDS011;29216;51.248;6.808;2023-02-01T04:31:41;20.42;;;4.88;;
43248;SDS011;29216;51.248;6.808;2023-02-01T04:34:07;15.07;;;3.85;;
43248;SDS011;29216;51.248;6.808;2023-02-01T04:36:33;16.67;;;3.72;;
43248;SDS011;29216;51.248;6.808;2023-02-01T04:38:58;20.25;;;3.75;;
43248;SDS011;29216;51.248;6.808;2023-02-01T04:41:24;15.45;;;4.03;;
43248;SDS011;29216;51.248;6.808;2023-02-01T04:43:50;14.32;;;3.47;;
43248;SDS011;29216;51.248;6.808;2023-02-01T04:46:17;18.90;;;4.28;;
43248;SDS011;29216;51.248;6.808;2023-02-01T04:48:43;17.95;;;4.80;;
43248;SDS011;29216;51.248;6.808;2023-02-01T04:51:09;16.20;;;3.83;;
43248;SDS011;29216;51.248;6.808;2023-02-01T04:53:35;19.75;;;4.00;;
43248;SDS011;29216;51.248;6.808;2023-02-01T04:56:01;20.05;;;4.43;;
43248;SDS011;29216;51.248;6.808;2023-02-01T04:58:26;17.05;;;4.35;;
43248;SDS011;29216;51.248;6.808;2023-02-01T05:00:52;15.43;;;4.60;;
43248;SDS011;29216;51.248;6.808;2023-02-01T05:03:18;16.25;;;4.22;;
43248;SDS011;29216;51.248;6.808;2023-02-01T05:05:44;19.15;;;4.07;;
43248;SDS011;29216;51.248;6.808;2023-02-01T05:08:12;15.15;;;4.45;;
43248;SDS011;29216;51.248;6.808;2023-02-01T05:10:38;17.08;;;4.00;;
43248;SDS011;29216;51.248;6.808;2023-02-01T05:13:04;16.65;;;3.70;;
43248;SDS011;29216;51.248;6.808;2023-02-01T05:15:49;20.92;;;4.40;;
43248;SDS011;29216;51.248;6.808;2023-02-01T05:18:15;15.57;;;3.50;;
43248;SDS011;29216;51.248;6.808;2023-02-01T05:20:41;13.75;;;3.60;;
43248;SDS011;29216;51.248;6.808;2023-02-01T05:23:06;18.73;;;4.40;;
43248;SDS011;29216;51.248;6.808;2023-02-01T05:25:32;15.07;;;3.80;;
43248;SDS011;29216;51.248;6.808;2023-02-01T05:27:58;23.75;;;4.38;;
43248;SDS011;29216;51.248;6.808;2023-02-01T05:30:23;15.15;;;3.67;;
43248;SDS011;29216;51.248;6.808;2023-02-01T05:32:52;21.15;;;3.65;;
43248;SDS011;29216;51.248;6.808;2023-02-01T05:35:18;23.00;;;4.80;;
43248;SDS011;29216;51.248;6.808;2023-02-01T05:37:44;14.77;;;3.78;;
43248;SDS011;29216;51.248;6.808;2023-02-01T05:40:10;17.65;;;3.88;;
43248;SDS011;29216;51.248;6.808;2023-02-01T05:42:36;18.30;;;4.63;;
43248;SDS011;29216;51.248;6.808;2023-02-01T05:45:01;16.67;;;3.60;;
43248;SDS011;29216;51.248;6.808;2023-02-01T05:47:30;25.55;;;4.40;;
43248;SDS011;29216;51.248;6.808;2023-02-01T05:49:56;16.33;;;4.22;;
43248;SDS011;29216;51.248;6.808;2023-02-01T05:52:21;13.43;;;3.95;;
43248;SDS011;29216;51.248;6.808;2023-02-01T05:54:47;19.92;;;4.40;;
43248;SDS011;29216;51.248;6.808;2023-02-01T05:57:13;20.42;;;3.83;;
43248;SDS011;29216;51.248;6.808;2023-02-01T05:59:39;12.93;;;3.72;;
43248;SDS011;29216;51.248;6.808;2023-02-01T06:02:09;18.20;;;3.97;;
43248;SDS011;29216;51.248;6.808;2023-02-01T06:04:36;20.60;;;3.72;;
43248;SDS011;29216;51.248;6.808;2023-02-01T06:07:01;16.35;;;4.30;;
43248;SDS011;29216;51.248;6.808;2023-02-01T06:09:27;18.52;;;4.00;;
43248;SDS011;29216;51.248;6.808;2023-02-01T06:11:53;20.45;;;4.95;;
43248;SDS011;29216;51.248;6.808;2023-02-01T06:14:19;23.77;;;4.88;;
43248;SDS011;29216;51.248;6.808;2023-02-01T06:16:45;19.92;;;3.95;;
43248;SDS011;29216;51.248;6.808;2023-02-01T06:19:11;15.25;;;4.13;;
43248;SDS011;29216;51.248;6.808;2023-02-01T06:21:37;18.63;;;4.57;;
43248;SDS011;29216;51.248;6.808;2023-02-01T06:24:03;18.00;;;4.30;;
43248;SDS011;29216;51.248;6.808;2023-02-01T06:26:29;16.63;;;4.07;;
43248;SDS011;29216;51.248;6.808;2023-02-01T06:28:55;17.83;;;4.05;;
43248;SDS011;29216;51.248;6.808;2023-02-01T06:31:21;17.23;;;4.85;;
43248;SDS011;29216;51.248;6.808;2023-02-01T06:33:48;15.82;;;3.78;;
43248;SDS011;29216;51.248;6.808;2023-02-01T06:36:14;14.45;;;4.10;;
43248;SDS011;29216;51.248;6.808;2023-02-01T06:38:45;21.45;;;5.65;;
43248;SDS011;29216;51.248;6.808;2023-02-01T06:41:11;21.27;;;4.22;;
43248;SDS011;29216;51.248;6.808;2023-02-01T06:43:37;21.67;;;4.13;;
43248;SDS011;29216;51.248;6.808;2023-02-01T06:46:03;19.60;;;3.80;;
43248;SDS011;29216;51.248;6.808;2023-02-01T06:48:31;18.45;;;3.47;;
43248;SDS011;29216;51.248;6.808;2023-02-01T06:50:57;15.57;;;4.50;;
43248;SDS011;29216;51.248;6.808;2023-02-01T06:53:23;20.48;;;4.50;;
43248;SDS011;29216;51.248;6.808;2023-02-01T06:55:53;16.98;;;4.70;;
43248;SDS011;29216;51.248;6.808;2023-02-01T06:58:20;24.17;;;4.97;;
43248;SDS011;29216;51.248;6.808;2023-02-01T07:00:46;15.48;;;3.58;;
43248;SDS011;29216;51.248;6.808;2023-02-01T07:03:11;20.65;;;5.30;;
43248;SDS011;29216;51.248;6.808;2023-02-01T07:05:37;18.88;;;4.53;;
43248;SDS011;29216;51.248;6.808;2023-02-01T07:08:02;17.05;;;3.85;;
43248;SDS011;29216;51.248;6.808;2023-02-01T07:10:28;15.95;;;4.00;;
43248;SDS011;29216;51.248;6.808;2023-02-01T07:12:56;27.25;;;4.63;;
43248;SDS011;29216;51.248;6.808;2023-02-01T07:15:22;15.88;;;4.55;;
43248;SDS011;29216;51.248;6.808;2023-02-01T07:17:48;28.73;;;4.40;;
43248;SDS011;29216;51.248;6.808;2023-02-01T07:20:14;18.42;;;4.07;;
43248;SDS011;29216;51.248;6.808;2023-02-01T07:22:40;19.83;;;4.38;;
43248;SDS011;29216;51.248;6.808;2023-02-01T07:25:06;15.07;;;3.30;;
43248;SDS011;29216;51.248;6.808;2023-02-01T07:27:35;19.75;;;4.65;;
43248;SDS011;29216;51.248;6.808;2023-02-01T07:30:01;22.52;;;4.18;;
43248;SDS011;29216;51.248;6.808;2023-02-01T07:32:28;20.17;;;3.72;;
43248;SDS011;29216;51.248;6.808;2023-02-01T07:34:54;16.25;;;3.95;;
43248;SDS011;29216;51.248;6.808;2023-02-01T07:37:20;20.02;;;4.32;;
43248;SDS011;29216;51.248;6.808;2023-02-01T07:39:46;17.50;;;4.00;;
43248;SDS011;29216;51.248;6.808;2023-02-01T07:42:11;25.02;;;4.80;;
43248;SDS011;29216;51.248;6.808;2023-02-01T07:44:37;21.42;;;5.53;;
43248;SDS011;29216;51.248;6.808;2023-02-01T07:47:03;16.48;;;4.30;;
43248;SDS011;29216;51.248;6.808;2023-02-01T07:49:28;24.05;;;4.15;;
43248;SDS011;29216;51.248;6.808;2023-02-01T07:51:55;12.55;;;3.70;;
43248;SDS011;29216;51.248;6.808;2023-02-01T07:54:20;15.90;;;4.68;;
43248;SDS011;29216;51.248;6.808;2023-02-01T07:56:49;15.15;;;5.00;;
43248;SDS011;29216;51.248;6.808;2023-02-01T07:59:14;14.40;;;4.13;;
43248;SDS011;29216;51.248;6.808;2023-02-01T08:01:41;22.05;;;3.95;;
43248;SDS011;29216;51.248;6.808;2023-02-01T08:04:07;15.75;;;4.38;;
43248;SDS011;29216;51.248;6.808;2023-02-01T08:06:37;24.15;;;5.07;;
43248;SDS011;29216;51.248;6.808;2023-02-01T08:09:07;13.77;;;3.80;;
43248;SDS011;29216;51.248;6.808;2023-02-01T08:11:33;20.35;;;4.32;;
43248;SDS011;29216;51.248;6.808;2023-02-01T08:14:01;14.55;;;4.35;;
43248;SDS011;29216;51.248;6.808;2023-02-01T08:16:27;16.00;;;3.78;;
43248;SDS011;29216;51.248;6.808;2023-02-01T08:18:53;26.25;;;5.53;;
43248;SDS011;29216;51.248;6.808;2023-02-01T08:21:22;21.20;;;4.38;;
43248;SDS011;29216;51.248;6.808;2023-02-01T08:23:49;20.88;;;4.35;;
43248;SDS011;29216;51.248;6.808;2023-02-01T08:28:47;19.52;;;4.22;;
43248;SDS011;29216;51.248;6.808;2023-02-01T08:31:21;19.38;;;4.32;;
43248;SDS011;29216;51.248;6.808;2023-02-01T08:33:50;16.13;;;3.58;;
43248;SDS011;29216;51.248;6.808;2023-02-01T08:36:17;17.08;;;3.90;;
43248;SDS011;29216;51.248;6.808;2023-02-01T08:38:44;14.73;;;3.60;;
43248;SDS011;29216;51.248;6.808;2023-02-01T08:41:11;23.75;;;4.78;;
43248;SDS011;29216;51.248;6.808;2023-02-01T08:43:38;16.70;;;3.92;;
43248;SDS011;29216;51.248;6.808;2023-02-01T08:46:04;18.08;;;4.22;;
43248;SDS011;29216;51.248;6.808;2023-02-01T08:48:31;21.65;;;4.50;;
43248;SDS011;29216;51.248;6.808;2023-02-01T08:50:57;26.58;;;3.92;;
43248;SDS011;29216;51.248;6.808;2023-02-01T08:53:27;18.88;;;4.43;;
43248;SDS011;29216;51.248;6.808;2023-02-01T08:55:52;22.88;;;5.03;;
43248;SDS011;29216;51.248;6.808;2023-02-01T08:58:18;14.40;;;3.97;;
43248;SDS011;29216;51.248;6.808;2023-02-01T09:00:44;18.40;;;4.68;;
43248;SDS011;29216;51.248;6.808;2023-02-01T09:03:10;16.70;;;4.82;;
43248;SDS011;29216;51.248;6.808;2023-02-01T09:05:36;17.40;;;4.43;;
43248;SDS011;29216;51.248;6.808;2023-02-01T09:08:03;21.73;;;4.20;;
43248;SDS011;29216;51.248;6.808;2023-02-01T09:10:29;12.55;;;4.22;;
43248;SDS011;29216;51.248;6.808;2023-02-01T09:12:55;14.98;;;4.00;;
43248;SDS011;29216;51.248;6.808;2023-02-01T09:15:21;14.85;;;4.03;;
43248;SDS011;29216;51.248;6.808;2023-02-01T09:17:46;15.77;;;4.07;;
43248;SDS011;29216;51.248;6.808;2023-02-01T09:20:12;13.13;;;3.97;;
43248;SDS011;29216;51.248;6.808;2023-02-01T09:22:38;18.92;;;4.68;;
43248;SDS011;29216;51.248;6.808;2023-02-01T09:25:04;12.32;;;4.00;;
43248;SDS011;29216;51.248;6.808;2023-02-01T09:27:30;19.42;;;4.32;;
43248;SDS011;29216;51.248;6.808;2023-02-01T09:29:56;15.65;;;3.88;;
43248;SDS011;29216;51.248;6.808;2023-02-01T09:32:22;16.77;;;3.63;;
43248;SDS011;29216;51.248;6.808;2023-02-01T09:34:49;13.02;;;4.35;;
43248;SDS011;29216;51.248;6.808;2023-02-01T09:37:18;14.50;;;4.43;;
43248;SDS011;29216;51.248;6.808;2023-02-01T09:39:44;23.48;;;4.57;;
43248;SDS011;29216;51.248;6.808;2023-02-01T09:45:02;20.10;;;4.53;;
43248;SDS011;29216;51.248;6.808;2023-02-01T09:47:40;17.70;;;3.70;;
43248;SDS011;29216;51.248;6.808;2023-02-01T09:50:15;20.40;;;4.22;;
43248;SDS011;29216;51.248;6.808;2023-02-01T09:52:58;21.07;;;4.03;;
43248;SDS011;29216;51.248;6.808;2023-02-01T09:58:02;20.23;;;4.78;;
43248;SDS011;29216;51.248;6.808;2023-02-01T10:00:36;24.17;;;4.65;;
43248;SDS011;29216;51.248;6.808;2023-02-01T10:03:04;13.35;;;4.40;;
43248;SDS011;29216;51.248;6.808;2023-02-01T10:09:10;12.43;;;3.63;;
43248;SDS011;29216;51.248;6.808;2023-02-01T10:14:03;15.40;;;4.20;;
43248;SDS011;29216;51.248;6.808;2023-02-01T10:19:17;17.67;;;3.70;;
43248;SDS011;29216;51.248;6.808;2023-02-01T10:22:08;15.20;;;3.60;;
43248;SDS011;29216;51.248;6.808;2023-02-01T10:24:42;18.92;;;4.85;;
43248;SDS011;29216;51.248;6.808;2023-02-01T10:27:22;17.60;;;3.67;;
43248;SDS011;29216;51.248;6.808;2023-02-01T10:29:55;17.88;;;4.57;;
43248;SDS011;29216;51.248;6.808;2023-02-01T10:32:28;16.98;;;4.03;;
43248;SDS011;29216;51.248;6.808;2023-02-01T10:34:57;17.98;;;5.68;;
43248;SDS011;29216;51.248;6.808;2023-02-01T10:37:29;20.60;;;4.28;;
43248;SDS011;29216;51.248;6.808;2023-02-01T10:39:57;14.85;;;3.95;;
43248;SDS011;29216;51.248;6.808;2023-02-01T10:42:26;17.05;;;4.82;;
43248;SDS011;29216;51.248;6.808;2023-02-01T10:44:57;19.15;;;4.35;;
43248;SDS011;29216;51.248;6.808;2023-02-01T10:47:25;20.92;;;4.28;;
43248;SDS011;29216;51.248;6.808;2023-02-01T10:49:56;18.33;;;5.50;;
43248;SDS011;29216;51.248;6.808;2023-02-01T10:52:52;16.63;;;4.05;;
43248;SDS011;29216;51.248;6.808;2023-02-01T10:57:55;12.63;;;4.25;;
43248;SDS011;29216;51.248;6.808;2023-02-01T11:00:34;14.43;;;3.60;;
43248;SDS011;29216;51.248;6.808;2023-02-01T11:03:19;15.23;;;3.92;;
43248;SDS011;29216;51.248;6.808;2023-02-01T11:05:51;14.70;;;4.13;;
43248;SDS011;29216;51.248;6.808;2023-02-01T11:08:17;16.63;;;3.55;;
43248;SDS011;29216;51.248;6.808;2023-02-01T11:10:44;11.85;;;3.65;;
43248;SDS011;29216;51.248;6.808;2023-02-01T11:13:13;10.70;;;3.50;;
43248;SDS011;29216;51.248;6.808;2023-02-01T11:15:45;13.48;;;3.63;;
43248;SDS011;29216;51.248;6.808;2023-02-01T11:18:19;18.75;;;5.00;;
43248;SDS011;29216;51.248;6.808;2023-02-01T11:20:51;13.13;;;4.15;;
43248;SDS011;29216;51.248;6.808;2023-02-01T11:23:20;16.27;;;3.92;;
43248;SDS011;29216;51.248;6.808;2023-02-01T11:25:49;18.65;;;4.45;;
43248;SDS011;29216;51.248;6.808;2023-02-01T11:28:21;15.88;;;3.72;;
43248;SDS011;29216;51.248;6.808;2023-02-01T11:30:48;18.02;;;4.90;;
43248;SDS011;29216;51.248;6.808;2023-02-01T11:33:16;24.75;;;4.85;;
43248;SDS011;29216;51.248;6.808;2023-02-01T11:35:44;22.38;;;4.05;;
43248;SDS011;29216;51.248;6.808;2023-02-01T11:38:18;17.33;;;4.50;;
43248;SDS011;29216;51.248;6.808;2023-02-01T11:40:46;24.05;;;3.75;;
43248;SDS011;29216;51.248;6.808;2023-02-01T11:43:27;14.63;;;3.65;;
43248;SDS011;29216;51.248;6.808;2023-02-01T11:48:26;17.58;;;3.97;;
43248;SDS011;29216;51.248;6.808;2023-02-01T11:56:36;8.98;;;3.30;;
43248;SDS011;29216;51.248;6.808;2023-02-01T12:07:21;12.30;;;3.83;;
43248;SDS011;29216;51.248;6.808;2023-02-01T12:10:01;14.95;;;3.63;;
43248;SDS011;29216;51.248;6.808;2023-02-01T12:15:20;16.20;;;3.50;;
43248;SDS011;29216;51.248;6.808;2023-02-01T12:20:48;11.30;;;3.25;;
43248;SDS011;29216;51.248;6.808;2023-02-01T12:26:18;17.10;;;3.83;;
43248;SDS011;29216;51.248;6.808;2023-02-01T12:34:56;16.20;;;4.65;;
43248;SDS011;29216;51.248;6.808;2023-02-01T12:40:43;17.50;;;4.28;;
43248;SDS011;29216;51.248;6.808;2023-02-01T12:43:33;11.70;;;4.20;;
43248;SDS011;29216;51.248;6.808;2023-02-01T12:46:16;10.10;;;3.65;;
43248;SDS011;29216;51.248;6.808;2023-02-01T12:48:57;13.18;;;4.22;;
43248;SDS011;29216;51.248;6.808;2023-02-01T12:51:36;16.88;;;3.40;;
43248;SDS011;29216;51.248;6.808;2023-02-01T12:54:12;12.38;;;4.35;;
43248;SDS011;29216;51.248;6.808;2023-02-01T12:59:20;20.45;;;4.72;;
43248;SDS011;29216;51.248;6.808;2023-02-01T13:01:52;13.73;;;3.55;;
43248;SDS011;29216;51.248;6.808;2023-02-01T13:04:26;13.02;;;3.25;;
43248;SDS011;29216;51.248;6.808;2023-02-01T13:09:55;17.02;;;3.67;;
43248;SDS011;29216;51.248;6.808;2023-02-01T13:12:36;15.32;;;3.92;;
43248;SDS011;29216;51.248;6.808;2023-02-01T13:15:51;17.58;;;3.53;;
43248;SDS011;29216;51.248;6.808;2023-02-01T13:18:02;11.40;;;4.40;;
43248;SDS011;29216;51.248;6.808;2023-02-01T13:25:49;15.85;;;4.00;;
43248;SDS011;29216;51.248;6.808;2023-02-01T13:28:21;11.43;;;3.20;;
43248;SDS011;29216;51.248;6.808;2023-02-01T13:36:33;12.73;;;3.58;;
43248;SDS011;29216;51.248;6.808;2023-02-01T13:42:01;14.80;;;3.55;;
43248;SDS011;29216;51.248;6.808;2023-02-01T13:44:42;10.30;;;3.35;;
43248;SDS011;29216;51.248;6.808;2023-02-01T13:47:27;16.92;;;4.35;;
43248;SDS011;29216;51.248;6.808;2023-02-01T13:49:56;15.10;;;3.42;;
43248;SDS011;29216;51.248;6.808;2023-02-01T13:52:26;12.68;;;3.85;;
43248;SDS011;29216;51.248;6.808;2023-02-01T13:57:39;14.95;;;3.85;;
43248;SDS011;29216;51.248;6.808;2023-02-01T14:23:43;11.60;;;2.97;;
43248;SDS011;29216;51.248;6.808;2023-02-01T14:26:16;12.57;;;2.50;;
43248;SDS011;29216;51.248;6.808;2023-02-01T14:28:52;13.38;;;3.22;;
43248;SDS011;29216;51.248;6.808;2023-02-01T14:31:31;13.07;;;3.20;;
43248;SDS011;29216;51.248;6.808;2023-02-01T14:34:01;13.35;;;2.90;;
43248;SDS011;29216;51.248;6.808;2023-02-01T14:36:40;13.90;;;4.57;;
43248;SDS011;29216;51.248;6.808;2023-02-01T14:39:19;11.63;;;2.90;;
43248;SDS011;29216;51.248;6.808;2023-02-01T14:41:59;10.65;;;2.95;;
43248;SDS011;29216;51.248;6.808;2023-02-01T14:44:29;8.57;;;2.50;;
43248;SDS011;29216;51.248;6.808;2023-02-01T14:49:33;9.10;;;2.70;;
43248;SDS011;29216;51.248;6.808;2023-02-01T14:52:20;16.65;;;2.80;;
43248;SDS011;29216;51.248;6.808;2023-02-01T14:54:50;14.57;;;3.42;;
43248;SDS011;29216;51.248;6.808;2023-02-01T14:57:19;12.55;;;3.58;;
43248;SDS011;29216;51.248;6.808;2023-02-01T14:59:46;14.93;;;3.53;;
43248;SDS011;29216;51.248;6.808;2023-02-01T15:02:20;18.58;;;3.83;;
43248;SDS011;29216;51.248;6.808;2023-02-01T15:04:52;14.27;;;3.17;;
43248;SDS011;29216;51.248;6.808;2023-02-01T15:07:23;10.35;;;2.63;;
43248;SDS011;29216;51.248;6.808;2023-02-01T15:09:51;12.25;;;3.97;;
43248;SDS011;29216;51.248;6.808;2023-02-01T15:12:24;11.48;;;2.85;;
43248;SDS011;29216;51.248;6.808;2023-02-01T15:15:13;13.73;;;3.05;;
43248;SDS011;29216;51.248;6.808;2023-02-01T15:20:31;14.95;;;3.13;;
43248;SDS011;29216;51.248;6.808;2023-02-01T15:25:29;16.67;;;3.20;;
43248;SDS011;29216;51.248;6.808;2023-02-01T15:27:57;16.23;;;2.80;;
43248;SDS011;29216;51.248;6.808;2023-02-01T15:30:24;13.70;;;2.70;;
43248;SDS011;29216;51.248;6.808;2023-02-01T15:35:42;12.32;;;3.50;;
43248;SDS011;29216;51.248;6.808;2023-02-01T15:47:04;14.55;;;3.55;;
43248;SDS011;29216;51.248;6.808;2023-02-01T15:49:29;19.20;;;3.47;;
43248;SDS011;29216;51.248;6.808;2023-02-01T15:51:59;10.30;;;3.45;;
43248;SDS011;29216;51.248;6.808;2023-02-01T15:54:28;14.63;;;3.25;;
43248;SDS011;29216;51.248;6.808;2023-02-01T15:57:11;19.10;;;3.78;;
43248;SDS011;29216;51.248;6.808;2023-02-01T15:59:43;17.67;;;3.50;;
43248;SDS011;29216;51.248;6.808;2023-02-01T16:02:25;12.63;;;3.30;;
43248;SDS011;29216;51.248;6.808;2023-02-01T16:04:53;12.70;;;3.28;;
43248;SDS011;29216;51.248;6.808;2023-02-01T16:07:29;16.23;;;3.80;;
43248;SDS011;29216;51.248;6.808;2023-02-01T16:09:57;14.48;;;3.15;;
43248;SDS011;29216;51.248;6.808;2023-02-01T16:15:00;14.90;;;3.50;;
43248;SDS011;29216;51.248;6.808;2023-02-01T16:17:25;15.07;;;3.33;;
43248;SDS011;29216;51.248;6.808;2023-02-01T16:19:53;18.83;;;3.88;;
43248;SDS011;29216;51.248;6.808;2023-02-01T16:22:19;18.08;;;2.85;;
43248;SDS011;29216;51.248;6.808;2023-02-01T16:24:45;14.77;;;3.95;;
43248;SDS011;29216;51.248;6.808;2023-02-01T16:27:10;11.10;;;3.38;;
43248;SDS011;29216;51.248;6.808;2023-02-01T16:29:36;14.65;;;3.95;;
43248;SDS011;29216;51.248;6.808;2023-02-01T16:32:02;20.27;;;4.25;;
43248;SDS011;29216;51.248;6.808;2023-02-01T16:34:29;20.25;;;3.10;;
43248;SDS011;29216;51.248;6.808;2023-02-01T16:36:54;22.35;;;3.60;;
43248;SDS011;29216;51.248;6.808;2023-02-01T16:39:22;16.20;;;3.58;;
43248;SDS011;29216;51.248;6.808;2023-02-01T16:41:52;20.15;;;3.80;;
43248;SDS011;29216;51.248;6.808;2023-02-01T16:44:18;14.85;;;3.50;;
43248;SDS011;29216;51.248;6.808;2023-02-01T16:46:44;18.90;;;3.30;;
43248;SDS011;29216;51.248;6.808;2023-02-01T16:49:19;11.00;;;2.90;;
43248;SDS011;29216;51.248;6.808;2023-02-01T16:51:47;14.32;;;4.13;;
43248;SDS011;29216;51.248;6.808;2023-02-01T16:54:14;11.02;;;3.28;;
43248;SDS011;29216;51.248;6.808;2023-02-01T16:56:40;13.98;;;3.83;;
43248;SDS011;29216;51.248;6.808;2023-02-01T16:59:07;17.23;;;3.38;;
43248;SDS011;29216;51.248;6.808;2023-02-01T17:01:40;11.93;;;3.45;;
43248;SDS011;29216;51.248;6.808;2023-02-01T17:04:07;10.52;;;3.22;;
43248;SDS011;29216;51.248;6.808;2023-02-01T17:06:38;21.35;;;3.35;;
43248;SDS011;29216;51.248;6.808;2023-02-01T17:09:05;12.20;;;3.22;;
43248;SDS011;29216;51.248;6.808;2023-02-01T17:11:34;14.43;;;4.07;;
43248;SDS011;29216;51.248;6.808;2023-02-01T17:14:14;18.52;;;3.58;;
43248;SDS011;29216;51.248;6.808;2023-02-01T17:16:42;12.90;;;3.42;;
43248;SDS011;29216;51.248;6.808;2023-02-01T17:19:12;17.17;;;3.47;;
43248;SDS011;29216;51.248;6.808;2023-02-01T17:21:44;17.05;;;3.58;;
43248;SDS011;29216;51.248;6.808;2023-02-01T17:24:29;14.00;;;4.43;;
43248;SDS011;29216;51.248;6.808;2023-02-01T17:26:56;15.75;;;3.63;;
43248;SDS011;29216;51.248;6.808;2023-02-01T17:29:22;13.70;;;3.20;;
43248;SDS011;29216;51.248;6.808;2023-02-01T17:31:52;13.32;;;3.30;;
43248;SDS011;29216;51.248;6.808;2023-02-01T17:34:19;17.65;;;3.75;;
43248;SDS011;29216;51.248;6.808;2023-02-01T17:36:45;17.20;;;3.60;;